Terminal Aerodrome Forecast
Issued by NWS

Home | Current Version | Previous Version | Text Only | Print | Product List | Glossary On
Versions: 1 2 3 4 5 6 7 8 9 10 11 12 13 14 15 16 17 18 19 20 21 22 23 24 25 26 27 28 29 30 31 32 33 34 35 36 37 38 39 40 41 42 43 44 45 46 47 48 49 50
043
FTAK31 PAFC 231145
TAFACV
TAF
PACV 231145Z 2312/2412 VRB03KT 3SM -SHSN BR FEW004 OVC028
      TEMPO 2313/2317 1 1/2SM -SHSN FEW004 OVC019
     FM232100 10008G16KT 5SM BR VCSH SCT019 BKN025
     FM240100 VRB03KT 5SM BR VCSH SCT025 BKN040=

USA.gov is the U.S. government's official web portal to all federal, state and local government web resources and services.